createdAt,value
2023-01-03T00:02:57.381Z,7.7
2023-01-03T00:05:57.372Z,7.7
2023-01-03T00:08:57.373Z,7.7
2023-01-03T00:11:57.415Z,7.7
2023-01-03T00:14:57.415Z,7.7
2023-01-03T00:17:57.386Z,7.7
2023-01-03T00:20:57.393Z,7.7
2023-01-03T00:23:57.409Z,7.7
2023-01-03T00:26:57.412Z,7.7
2023-01-03T00:29:57.409Z,7.7
2023-01-03T00:32:57.436Z,7.7
2023-01-03T00:35:57.411Z,7.7
2023-01-03T00:38:57.423Z,7.7
2023-01-03T00:41:57.455Z,7.7
2023-01-03T00:44:57.435Z,7.7
2023-01-03T00:47:57.437Z,7.7
2023-01-03T00:50:57.605Z,7.7
2023-01-03T00:53:57.440Z,7.7
2023-01-03T00:56:57.474Z,7.7
2023-01-03T00:59:57.450Z,7.7
2023-01-03T01:02:57.623Z,7.7
2023-01-03T01:05:57.468Z,7.7
2023-01-03T01:08:57.503Z,7.7
2023-01-03T01:11:57.506Z,7.7
2023-01-03T01:14:57.483Z,7.7
2023-01-03T01:17:57.496Z,7.7
2023-01-03T01:20:57.488Z,7.7
2023-01-03T01:23:57.497Z,7.7
2023-01-03T01:26:57.529Z,7.7
2023-01-03T01:29:57.501Z,7.7
2023-01-03T01:32:57.510Z,7.7
2023-01-03T01:35:57.538Z,7.7
2023-01-03T01:38:57.514Z,7.7
2023-01-03T01:41:57.531Z,7.7
2023-01-03T01:44:57.547Z,7.7
2023-01-03T01:47:57.524Z,7.7
2023-01-03T01:50:57.548Z,7.7
2023-01-03T01:53:57.534Z,7.7
2023-01-03T01:56:57.551Z,7.7
2023-01-03T01:59:57.547Z,7.7
2023-01-03T02:02:57.651Z,7.7
2023-01-03T02:05:57.556Z,7.7
2023-01-03T02:08:57.556Z,7.7
2023-01-03T02:11:57.575Z,7.7
2023-01-03T02:14:57.564Z,7.7
2023-01-03T02:17:57.569Z,7.7
2023-01-03T02:20:57.721Z,7.7
2023-01-03T02:23:57.582Z,7.7
2023-01-03T02:26:57.600Z,7.7
2023-01-03T02:29:57.593Z,7.7
2023-01-03T02:32:57.700Z,7.7
2023-01-03T02:35:57.592Z,7.7
2023-01-03T02:38:57.628Z,7.6
2023-01-03T02:41:57.611Z,7.6
2023-01-03T02:44:57.606Z,7.6
2023-01-03T02:47:57.614Z,7.7
2023-01-03T02:50:57.646Z,7.6
2023-01-03T02:53:57.626Z,7.7
2023-01-03T02:56:57.659Z,7.6
2023-01-03T02:59:57.621Z,7.6
2023-01-03T03:02:57.733Z,7.6
2023-01-03T03:05:57.827Z,7.6
2023-01-03T03:08:57.640Z,7.6
2023-01-03T03:11:57.664Z,7.6
2023-01-03T03:14:57.669Z,7.6
2023-01-03T03:17:57.663Z,7.6
2023-01-03T03:20:57.665Z,7.6
2023-01-03T03:23:57.669Z,7.6
2023-01-03T03:26:57.674Z,7.6
2023-01-03T03:29:57.673Z,7.6
2023-01-03T03:32:57.801Z,7.6
2023-01-03T03:35:57.683Z,7.6
2023-01-03T03:38:57.700Z,7.6
2023-01-03T03:41:57.708Z,7.6
2023-01-03T03:45:01.268Z,7.6
2023-01-03T03:47:57.714Z,7.6
2023-01-03T03:50:57.731Z,7.6
2023-01-03T03:53:57.713Z,7.6
2023-01-03T03:56:57.714Z,7.6
2023-01-03T03:59:57.740Z,7.6
2023-01-03T04:02:57.858Z,7.6
2023-01-03T04:05:57.745Z,7.6
2023-01-03T04:08:57.769Z,7.6
2023-01-03T04:11:57.741Z,7.6
2023-01-03T04:14:57.745Z,7.6
2023-01-03T04:17:57.746Z,7.6
2023-01-03T04:20:57.739Z,7.6
2023-01-03T04:23:57.744Z,7.6
2023-01-03T04:26:58.069Z,7.6
2023-01-03T04:29:57.752Z,7.6
2023-01-03T04:32:57.755Z,7.6
2023-01-03T04:35:57.766Z,7.6
2023-01-03T04:38:57.767Z,7.6
2023-01-03T04:41:57.792Z,7.6
2023-01-03T04:44:57.809Z,7.6
2023-01-03T04:47:57.783Z,7.6
2023-01-03T04:50:57.786Z,7.6
2023-01-03T04:53:57.801Z,7.6
2023-01-03T04:56:57.809Z,7.6
2023-01-03T04:59:57.796Z,7.5
2023-01-03T05:02:57.820Z,7.5
2023-01-03T05:05:57.800Z,7.6
2023-01-03T05:08:57.808Z,7.6
2023-01-03T05:11:57.825Z,7.5
2023-01-03T05:14:57.821Z,7.5
2023-01-03T05:17:57.831Z,7.5
2023-01-03T05:20:57.861Z,7.5
2023-01-03T05:23:57.843Z,7.5
2023-01-03T05:26:57.858Z,7.5
2023-01-03T05:29:57.860Z,7.5
2023-01-03T05:32:57.868Z,7.5
2023-01-03T05:35:57.862Z,7.5
2023-01-03T05:38:57.889Z,7.5
2023-01-03T05:41:57.898Z,7.5
2023-01-03T05:44:57.880Z,7.5
2023-01-03T05:47:57.890Z,7.5
2023-01-03T05:50:57.881Z,7.5
2023-01-03T05:53:57.884Z,7.5
2023-01-03T05:56:57.918Z,7.5
2023-01-03T05:59:57.885Z,7.4
2023-01-03T06:02:57.932Z,7.5
2023-01-03T06:05:57.895Z,7.4
2023-01-03T06:08:57.895Z,7.4
2023-01-03T06:11:57.922Z,7.4
2023-01-03T06:14:57.927Z,7.4
2023-01-03T06:17:58.352Z,7.4
2023-01-03T06:20:57.917Z,7.4
2023-01-03T06:23:57.919Z,7.4
2023-01-03T06:26:57.935Z,7.4
2023-01-03T06:29:57.934Z,7.4
2023-01-03T06:32:57.962Z,7.4
2023-01-03T06:35:57.936Z,7.4
2023-01-03T06:38:57.929Z,7.4
2023-01-03T06:41:57.950Z,7.4
2023-01-03T06:44:57.943Z,7.4
2023-01-03T06:47:57.944Z,7.4
2023-01-03T06:50:57.979Z,7.4
2023-01-03T06:53:57.948Z,7.4
2023-01-03T06:56:57.955Z,7.4
2023-01-03T06:59:57.951Z,7.4
2023-01-03T07:02:58.017Z,7.4
2023-01-03T07:05:57.955Z,7.4
2023-01-03T07:08:57.972Z,7.4
2023-01-03T07:11:57.965Z,7.4
2023-01-03T07:14:57.959Z,7.4
2023-01-03T07:17:57.979Z,7.4
2023-01-03T07:20:57.988Z,7.4
2023-01-03T07:23:58.013Z,7.4
2023-01-03T07:26:58.065Z,7.4
2023-01-03T07:29:58.027Z,7.4
2023-01-03T07:32:58.042Z,7.4
2023-01-03T07:35:58.051Z,7.4
2023-01-03T07:38:58.055Z,7.4
2023-01-03T07:41:58.080Z,7.4
2023-01-03T07:44:58.088Z,7.4
2023-01-03T07:47:58.069Z,7.3
2023-01-03T07:50:58.157Z,7.3
2023-01-03T07:53:58.089Z,7.3
2023-01-03T07:56:58.101Z,7.3
2023-01-03T07:59:58.097Z,7.3
2023-01-03T08:02:58.245Z,7.3
2023-01-03T08:05:58.107Z,7.3
2023-01-03T08:09:02.572Z,7.3
2023-01-03T08:11:58.121Z,7.3
2023-01-03T08:14:58.118Z,7.3
2023-01-03T08:17:58.120Z,7.3
2023-01-03T08:20:58.197Z,7.3
2023-01-03T08:23:58.129Z,7.3
2023-01-03T08:26:58.143Z,7.3
2023-01-03T08:29:58.140Z,7.3
2023-01-03T08:32:58.143Z,7.2
2023-01-03T08:35:58.153Z,7.3
2023-01-03T08:38:58.220Z,7.2
2023-01-03T08:41:58.165Z,7.2
2023-01-03T08:44:58.165Z,7.2
2023-01-03T08:47:58.168Z,7.2
2023-01-03T08:50:58.167Z,7.2
2023-01-03T08:53:58.188Z,7.2
2023-01-03T08:56:58.209Z,7.2
2023-01-03T08:59:58.185Z,7.2
2023-01-03T09:02:58.319Z,7.2
2023-01-03T09:05:58.378Z,7.2
2023-01-03T09:08:58.197Z,7.2
2023-01-03T09:11:58.204Z,7.2
2023-01-03T09:14:58.230Z,7.2
2023-01-03T09:17:58.207Z,7.2
2023-01-03T09:20:58.211Z,7.2
2023-01-03T09:23:58.212Z,7.2
2023-01-03T09:26:58.229Z,7.2
2023-01-03T09:29:58.226Z,7.2
2023-01-03T09:32:58.248Z,7.2
2023-01-03T09:35:58.240Z,7.2
2023-01-03T09:38:58.234Z,7.2
2023-01-03T09:41:58.243Z,7.2
2023-01-03T09:44:58.240Z,7.2
2023-01-03T09:47:58.244Z,7.2
2023-01-03T09:51:18.192Z,7.2
2023-01-03T09:53:58.262Z,7.2
2023-01-03T09:56:58.266Z,7.2
2023-01-03T09:59:58.273Z,7.2
2023-01-03T10:02:58.395Z,7.2
2023-01-03T10:05:58.281Z,7.2
2023-01-03T10:08:58.287Z,7.2
2023-01-03T10:11:58.292Z,7.2
2023-01-03T10:14:58.287Z,7.1
2023-01-03T10:17:58.280Z,7.1
2023-01-03T10:20:58.281Z,7.2
2023-01-03T10:23:58.283Z,7.1
2023-01-03T10:26:58.323Z,7.1
2023-01-03T10:29:58.301Z,7.1
2023-01-03T10:32:58.314Z,7.1
2023-01-03T10:35:58.314Z,7.1
2023-01-03T10:38:58.316Z,7.1
2023-01-03T10:41:58.327Z,7.1
2023-01-03T10:44:58.358Z,7.1
2023-01-03T10:47:58.335Z,7.1
2023-01-03T10:50:58.334Z,7.1
2023-01-03T10:53:58.344Z,7.1
2023-01-03T10:56:58.380Z,7.1
2023-01-03T10:59:58.342Z,7.1
2023-01-03T11:02:58.441Z,7.1
2023-01-03T11:05:58.360Z,7.1
2023-01-03T11:08:58.365Z,7.1
2023-01-03T11:11:58.401Z,7.1
2023-01-03T11:14:58.392Z,7.1
2023-01-03T11:17:58.386Z,7.1
2023-01-03T11:20:58.403Z,7.1
2023-01-03T11:23:58.382Z,7.1
2023-01-03T11:26:58.414Z,7.1
2023-01-03T11:29:58.388Z,7.1
2023-01-03T11:32:58.393Z,7.1
2023-01-03T11:35:58.404Z,7.1
2023-01-03T11:38:58.443Z,7.1
2023-01-03T11:41:58.430Z,7.1
2023-01-03T11:44:58.413Z,7.1
2023-01-03T11:47:58.419Z,7.1
2023-01-03T11:50:58.433Z,7.1
2023-01-03T11:53:58.436Z,7.1
2023-01-03T11:56:58.484Z,7.1
2023-01-03T11:59:58.440Z,7.1
2023-01-03T12:02:58.526Z,7.1
2023-01-03T12:05:58.449Z,7.1
2023-01-03T12:08:58.474Z,7.1
2023-01-03T12:11:58.458Z,7.1
2023-01-03T12:15:00.511Z,7.1
2023-01-03T12:17:58.471Z,7.1
2023-01-03T12:20:58.473Z,7.1
2023-01-03T12:23:58.485Z,7.1
2023-01-03T12:26:58.521Z,7.1
2023-01-03T12:29:58.493Z,7.1
2023-01-03T12:32:58.515Z,7.1
2023-01-03T12:35:58.499Z,7
2023-01-03T12:38:58.507Z,7
2023-01-03T12:41:58.510Z,7
2023-01-03T12:44:58.504Z,7.1
2023-01-03T12:47:58.504Z,7.1
2023-01-03T12:50:58.529Z,7.1
2023-01-03T12:53:58.516Z,7
2023-01-03T12:56:58.526Z,7
2023-01-03T12:59:58.524Z,7
2023-01-03T13:02:58.653Z,7
2023-01-03T13:05:58.532Z,7
2023-01-03T13:08:58.581Z,7
2023-01-03T13:11:58.554Z,7
2023-01-03T13:14:58.554Z,7
2023-01-03T13:17:58.543Z,7
2023-01-03T13:20:58.545Z,7
2023-01-03T13:23:58.564Z,7
2023-01-03T13:26:58.580Z,7
2023-01-03T13:29:58.556Z,7
2023-01-03T13:32:58.568Z,7
2023-01-03T13:35:58.587Z,7
2023-01-03T13:38:58.574Z,7
2023-01-03T13:41:58.592Z,7
2023-01-03T13:44:58.700Z,7
2023-01-03T13:47:58.582Z,7
2023-01-03T13:50:58.591Z,7
2023-01-03T13:53:58.606Z,7
2023-01-03T13:56:58.614Z,7
2023-01-03T13:59:58.632Z,7
2023-01-03T14:02:58.866Z,7
2023-01-03T14:05:58.618Z,7
2023-01-03T14:08:58.627Z,7
2023-01-03T14:11:58.635Z,7
2023-01-03T14:14:58.628Z,7
2023-01-03T14:17:58.662Z,7
2023-01-03T14:20:58.760Z,7
2023-01-03T14:24:00.536Z,7
2023-01-03T14:26:58.665Z,7
2023-01-03T14:29:58.661Z,7
2023-01-03T14:32:58.653Z,7
2023-01-03T14:35:58.669Z,7
2023-01-03T14:38:58.691Z,7
2023-01-03T14:41:58.676Z,7
2023-01-03T14:44:58.675Z,7
2023-01-03T14:47:58.689Z,7
2023-01-03T14:50:58.691Z,7
2023-01-03T14:53:58.689Z,7
2023-01-03T14:56:58.724Z,7
2023-01-03T14:59:58.706Z,7
2023-01-03T15:02:58.829Z,7
2023-01-03T15:05:58.710Z,7
2023-01-03T15:08:58.725Z,7
2023-01-03T15:11:58.726Z,7
2023-01-03T15:14:58.744Z,7
2023-01-03T15:17:58.726Z,7
2023-01-03T15:20:58.739Z,7
2023-01-03T15:23:58.736Z,6.9
2023-01-03T15:26:58.752Z,7
2023-01-03T15:29:58.734Z,7
2023-01-03T15:32:58.780Z,7
2023-01-03T15:35:58.753Z,6.9
2023-01-03T15:38:58.755Z,6.9
2023-01-03T15:42:34.935Z,7
2023-01-03T15:44:58.759Z,6.9
2023-01-03T15:47:58.776Z,6.9
2023-01-03T15:50:58.797Z,6.9
2023-01-03T15:53:58.778Z,6.9
2023-01-03T15:56:58.797Z,6.9
2023-01-03T15:59:58.780Z,6.9
2023-01-03T16:02:58.919Z,6.9
2023-01-03T16:05:58.791Z,6.9
2023-01-03T16:08:58.826Z,7
2023-01-03T16:11:58.831Z,6.9
2023-01-03T16:14:58.809Z,6.9
2023-01-03T16:17:58.813Z,6.9
2023-01-03T16:20:58.824Z,6.9
2023-01-03T16:23:58.824Z,6.9
2023-01-03T16:26:58.855Z,6.9
2023-01-03T16:29:58.897Z,6.9
2023-01-03T16:32:58.837Z,6.9
2023-01-03T16:35:58.835Z,6.9
2023-01-03T16:38:58.835Z,6.9
2023-01-03T16:41:58.860Z,6.9
2023-01-03T16:44:58.893Z,6.9
2023-01-03T16:47:58.857Z,6.9
2023-01-03T16:50:58.861Z,6.9
2023-01-03T16:53:58.876Z,6.9
2023-01-03T16:56:58.877Z,6.9
2023-01-03T16:59:58.877Z,6.9
2023-01-03T17:02:59.262Z,6.9
2023-01-03T17:05:58.875Z,6.9
2023-01-03T17:08:58.891Z,6.9
2023-01-03T17:11:58.899Z,6.9
2023-01-03T17:14:58.898Z,6.9
2023-01-03T17:17:58.902Z,6.9
2023-01-03T17:20:58.929Z,6.9
2023-01-03T17:23:58.915Z,6.9
2023-01-03T17:26:58.940Z,6.9
2023-01-03T17:29:58.933Z,6.9
2023-01-03T17:32:58.942Z,6.9
2023-01-03T17:35:58.999Z,6.9
2023-01-03T17:38:58.999Z,6.9
2023-01-03T17:41:58.984Z,6.9
2023-01-03T17:44:58.981Z,6.9
2023-01-03T17:47:58.983Z,6.9
2023-01-03T17:50:58.981Z,6.9
2023-01-03T17:53:58.981Z,6.9
2023-01-03T17:56:59.154Z,6.9
2023-01-03T17:59:59.000Z,6.9
2023-01-03T18:02:59.192Z,6.9
2023-01-03T18:05:58.995Z,6.9
2023-01-03T18:08:59.012Z,6.9
2023-01-03T18:11:59.019Z,6.9
2023-01-03T18:14:59.016Z,6.9
2023-01-03T18:17:58.995Z,6.9
2023-01-03T18:20:59.036Z,6.9
2023-01-03T18:23:59.002Z,6.9
2023-01-03T18:26:59.026Z,6.9
2023-01-03T18:29:59.003Z,6.9
2023-01-03T18:32:59.028Z,6.9
2023-01-03T18:35:59.009Z,6.9
2023-01-03T18:38:59.010Z,6.9
2023-01-03T18:41:59.055Z,6.9
2023-01-03T18:44:59.012Z,6.9
2023-01-03T18:47:59.008Z,6.9
2023-01-03T18:50:59.992Z,6.9
2023-01-03T18:53:59.032Z,6.9
2023-01-03T18:56:59.018Z,6.9
2023-01-03T18:59:59.012Z,6.9
2023-01-03T19:02:59.192Z,6.9
2023-01-03T19:05:59.028Z,6.9
2023-01-03T19:08:59.039Z,6.8
2023-01-03T19:11:59.028Z,6.8
2023-01-03T19:14:59.028Z,6.9
2023-01-03T19:17:59.035Z,6.8
2023-01-03T19:20:59.033Z,6.9
2023-01-03T19:23:59.048Z,6.8
2023-01-03T19:26:59.062Z,6.9
2023-01-03T19:29:59.041Z,6.8
2023-01-03T19:32:59.043Z,6.8
2023-01-03T19:35:59.056Z,6.8
2023-01-03T19:38:59.090Z,6.8
2023-01-03T19:41:59.047Z,6.8
2023-01-03T19:44:59.073Z,6.8
2023-01-03T19:47:59.052Z,6.8
2023-01-03T19:50:59.049Z,6.8
2023-01-03T19:53:59.067Z,6.8
2023-01-03T19:56:59.056Z,6.8
2023-01-03T19:59:59.162Z,6.8
2023-01-03T20:02:59.348Z,6.8
2023-01-03T20:05:59.075Z,6.8
2023-01-03T20:08:59.080Z,6.8
2023-01-03T20:11:59.083Z,6.8
2023-01-03T20:15:06.442Z,6.8
2023-01-03T20:17:59.094Z,6.8
2023-01-03T20:20:59.130Z,6.8
2023-01-03T20:23:59.116Z,6.8
2023-01-03T20:26:59.104Z,6.8
2023-01-03T20:29:59.107Z,6.8
2023-01-03T20:32:59.129Z,6.8
2023-01-03T20:36:21.960Z,6.8
2023-01-03T20:38:59.141Z,6.8
2023-01-03T20:42:03.431Z,6.8
2023-01-03T20:44:59.127Z,6.7
2023-01-03T20:47:59.131Z,6.7
2023-01-03T20:50:59.140Z,6.8
2023-01-03T20:53:59.141Z,6.7
2023-01-03T20:56:59.176Z,6.7
2023-01-03T20:59:59.143Z,6.8
2023-01-03T21:02:59.281Z,6.7
2023-01-03T21:05:59.158Z,6.7
2023-01-03T21:08:59.140Z,6.7
2023-01-03T21:11:59.171Z,6.7
2023-01-03T21:14:59.232Z,6.7
2023-01-03T21:17:59.161Z,6.7
2023-01-03T21:20:59.164Z,6.7
2023-01-03T21:23:59.179Z,6.7
2023-01-03T21:26:59.187Z,6.7
2023-01-03T21:29:59.190Z,6.7
2023-01-03T21:32:59.217Z,6.7
2023-01-03T21:35:59.203Z,6.7
2023-01-03T21:38:59.212Z,6.7
2023-01-03T21:41:59.222Z,6.7
2023-01-03T21:44:59.230Z,6.7
2023-01-03T21:47:59.233Z,6.7
2023-01-03T21:50:59.267Z,6.7
2023-01-03T21:53:59.244Z,6.7
2023-01-03T21:56:59.295Z,6.7
2023-01-03T21:59:59.303Z,6.7
2023-01-03T22:03:00.273Z,6.7
2023-01-03T22:05:59.281Z,6.7
2023-01-03T22:08:59.313Z,6.7
2023-01-03T22:11:59.312Z,6.7
2023-01-03T22:14:59.303Z,6.7
2023-01-03T22:17:59.321Z,6.7
2023-01-03T22:20:59.317Z,6.7
2023-01-03T22:23:59.332Z,6.7
2023-01-03T22:26:59.358Z,6.7
2023-01-03T22:29:59.349Z,6.7
2023-01-03T22:32:59.353Z,6.7
2023-01-03T22:35:59.364Z,6.7
2023-01-03T22:38:59.353Z,6.7
2023-01-03T22:41:59.366Z,6.7
2023-01-03T22:44:59.386Z,6.7
2023-01-03T22:47:59.367Z,6.7
2023-01-03T22:50:59.375Z,6.7
2023-01-03T22:53:59.379Z,6.7
2023-01-03T22:56:59.389Z,6.7
2023-01-03T22:59:59.399Z,6.7
2023-01-03T23:02:59.546Z,6.7
2023-01-03T23:05:59.400Z,6.7
2023-01-03T23:08:59.402Z,6.7
2023-01-03T23:11:59.415Z,6.7
2023-01-03T23:14:59.408Z,6.7
2023-01-03T23:17:59.422Z,6.6
2023-01-03T23:20:59.446Z,6.6
2023-01-03T23:23:59.433Z,6.6
2023-01-03T23:26:59.429Z,6.6
2023-01-03T23:29:59.448Z,6.6
2023-01-03T23:32:59.457Z,6.6
2023-01-03T23:35:59.459Z,6.6
2023-01-03T23:38:59.482Z,6.6
2023-01-03T23:41:59.500Z,6.6
2023-01-03T23:44:59.507Z,6.6
2023-01-03T23:47:59.513Z,6.6
2023-01-03T23:50:59.472Z,6.6
2023-01-03T23:53:59.538Z,6.6
2023-01-03T23:56:59.529Z,6.6
2023-01-03T23:59:59.493Z,6.6
